createdAt,value
2019-05-29T00:01:18.517Z,99.90
2019-05-29T00:06:55.086Z,99.90
2019-05-29T00:09:33.357Z,99.90
2019-05-29T00:12:21.101Z,99.90
2019-05-29T00:16:12.870Z,99.90
2019-05-29T00:21:57.007Z,99.90
2019-05-29T00:24:48.155Z,99.90
2019-05-29T00:27:18.135Z,99.90
2019-05-29T00:30:06.805Z,99.90
2019-05-29T00:32:36.528Z,99.90
2019-05-29T00:35:20.169Z,99.90
2019-05-29T00:38:18.991Z,99.90
2019-05-29T00:40:52.451Z,99.90
2019-05-29T00:43:26.594Z,99.90
2019-05-29T00:46:18.005Z,99.90
2019-05-29T00:49:05.928Z,99.90
2019-05-29T00:51:21.379Z,99.90
2019-05-29T00:54:00.023Z,99.90
2019-05-29T00:56:32.313Z,99.90
2019-05-29T00:59:05.772Z,99.90
2019-05-29T01:01:41.641Z,99.90
2019-05-29T01:04:11.518Z,99.90
2019-05-29T01:06:47.416Z,99.90
2019-05-29T01:09:26.331Z,99.90
2019-05-29T01:12:00.135Z,99.90
2019-05-29T01:14:30.537Z,99.90
2019-05-29T01:17:12.168Z,99.90
2019-05-29T01:19:43.516Z,99.90
2019-05-29T01:22:18.857Z,99.90
2019-05-29T01:24:49.541Z,99.90
2019-05-29T01:27:27.990Z,99.90
2019-05-29T01:29:58.984Z,99.90
2019-05-29T01:32:39.167Z,99.90
2019-05-29T01:38:04.866Z,99.90
2019-05-29T01:40:45.338Z,99.90
2019-05-29T01:43:55.974Z,99.90
2019-05-29T01:49:58.514Z,99.90
2019-05-29T01:52:49.770Z,99.90
2019-05-29T01:55:49.453Z,99.90
2019-05-29T02:02:08.665Z,99.90
2019-05-29T02:05:12.160Z,99.90
2019-05-29T02:11:14.972Z,99.90
2019-05-29T02:13:44.781Z,99.90
2019-05-29T02:16:16.608Z,99.90
2019-05-29T02:18:47.457Z,99.90
2019-05-29T02:21:28.455Z,99.90
2019-05-29T02:23:58.240Z,99.90
2019-05-29T02:29:29.731Z,99.90
2019-05-29T02:31:58.547Z,99.90
2019-05-29T02:34:27.924Z,99.90
2019-05-29T02:37:04.753Z,99.90
2019-05-29T02:42:56.015Z,99.90
2019-05-29T02:45:53.879Z,99.90
2019-05-29T02:48:10.430Z,99.90
2019-05-29T02:50:38.858Z,99.90
2019-05-29T02:53:12.356Z,99.90
2019-05-29T02:55:43.792Z,99.90
2019-05-29T02:58:14.136Z,99.90
2019-05-29T03:00:55.934Z,99.90
2019-05-29T03:03:31.583Z,99.90
2019-05-29T03:06:04.735Z,99.90
2019-05-29T03:08:32.548Z,99.90
2019-05-29T03:11:07.122Z,99.90
2019-05-29T03:13:39.804Z,99.90
2019-05-29T03:16:41.455Z,99.90
2019-05-29T03:18:56.234Z,99.90
2019-05-29T03:24:24.498Z,99.90
2019-05-29T03:27:08.368Z,99.90
2019-05-29T03:29:38.320Z,99.90
2019-05-29T03:32:13.636Z,99.90
2019-05-29T03:34:56.801Z,99.90
2019-05-29T03:37:30.147Z,99.90
2019-05-29T03:40:01.514Z,99.90
2019-05-29T03:42:30.588Z,99.90
2019-05-29T03:50:53.071Z,99.90
2019-05-29T03:53:32.014Z,99.90
2019-05-29T03:56:06.958Z,99.90
2019-05-29T03:58:42.319Z,99.90
2019-05-29T04:01:11.002Z,99.90
2019-05-29T04:10:42.274Z,99.90
2019-05-29T04:13:10.743Z,99.90
2019-05-29T04:15:55.506Z,99.90
2019-05-29T04:18:46.331Z,99.90
2019-05-29T04:21:16.417Z,99.90
2019-05-29T04:23:48.749Z,99.90
2019-05-29T04:26:50.330Z,99.90
2019-05-29T04:29:20.281Z,99.90
2019-05-29T04:32:01.866Z,99.90
2019-05-29T04:34:49.648Z,99.90
2019-05-29T04:37:39.170Z,99.90
2019-05-29T04:40:37.095Z,99.90
2019-05-29T04:43:28.627Z,99.90
2019-05-29T04:46:10.350Z,99.90
2019-05-29T04:51:55.662Z,99.90
2019-05-29T04:57:31.424Z,99.90
2019-05-29T05:03:52.493Z,99.90
2019-05-29T05:09:29.540Z,99.90
2019-05-29T05:12:00.641Z,99.90
2019-05-29T05:14:41.756Z,99.90
2019-05-29T05:21:04.662Z,99.90
2019-05-29T05:23:34.018Z,99.90
2019-05-29T05:26:56.572Z,99.90
2019-05-29T05:29:30.129Z,99.90
2019-05-29T05:32:05.035Z,99.90
2019-05-29T05:34:34.692Z,99.90
2019-05-29T05:37:03.277Z,99.90
2019-05-29T05:42:25.575Z,99.90
2019-05-29T05:45:30.962Z,99.90
2019-05-29T05:47:58.573Z,99.90
2019-05-29T05:50:51.819Z,99.90
2019-05-29T05:53:11.452Z,99.90
2019-05-29T06:02:52.221Z,99.90
2019-05-29T06:05:26.702Z,99.90
2019-05-29T06:08:09.159Z,99.90
2019-05-29T06:10:38.601Z,99.90
2019-05-29T06:13:08.548Z,99.90
2019-05-29T06:15:38.441Z,99.90
2019-05-29T06:18:20.582Z,99.90
2019-05-29T06:20:39.021Z,99.90
2019-05-29T06:23:08.771Z,99.90
2019-05-29T06:25:39.072Z,99.90
2019-05-29T06:28:08.387Z,99.90
2019-05-29T06:30:55.499Z,99.90
2019-05-29T06:33:25.295Z,99.90
2019-05-29T06:35:53.688Z,99.90
2019-05-29T06:38:21.710Z,99.90
2019-05-29T06:40:52.588Z,99.90
2019-05-29T06:43:22.418Z,99.90
2019-05-29T06:45:50.758Z,99.90
2019-05-29T06:48:40.396Z,99.90
2019-05-29T06:50:57.260Z,99.90
2019-05-29T06:53:25.166Z,99.90
2019-05-29T06:55:55.580Z,99.90
2019-05-29T06:58:24.504Z,99.90
2019-05-29T07:00:52.693Z,99.80
2019-05-29T07:03:21.322Z,99.40
2019-05-29T07:05:51.341Z,97.90
2019-05-29T07:08:35.233Z,97.40
2019-05-29T07:10:49.914Z,97.30
2019-05-29T07:13:18.318Z,96.50
2019-05-29T07:15:47.577Z,96.30
2019-05-29T07:18:16.047Z,94.60
2019-05-29T07:20:46.968Z,95.30
2019-05-29T07:23:18.477Z,93.80
2019-05-29T07:25:47.515Z,94.90
2019-05-29T07:28:18.499Z,94.10
2019-05-29T07:30:53.881Z,93.70
2019-05-29T07:33:16.869Z,93.80
2019-05-29T07:35:45.601Z,95.20
2019-05-29T07:38:16.294Z,95.60
2019-05-29T07:40:58.692Z,95.30
2019-05-29T07:43:32.497Z,95.30
2019-05-29T07:46:00.152Z,97.10
2019-05-29T07:48:29.603Z,96.80
2019-05-29T07:51:06.555Z,98.00
2019-05-29T07:53:48.838Z,97.90
2019-05-29T07:56:22.130Z,98.30
2019-05-29T07:58:56.507Z,99.20
2019-05-29T08:04:26.702Z,99.00
2019-05-29T08:06:58.790Z,99.50
2019-05-29T08:09:24.335Z,98.70
2019-05-29T08:11:55.137Z,99.40
2019-05-29T08:14:23.373Z,98.50
2019-05-29T08:16:51.430Z,98.50
2019-05-29T08:19:21.898Z,97.90
2019-05-29T08:21:50.602Z,97.30
2019-05-29T08:24:18.953Z,98.10
2019-05-29T08:26:47.070Z,96.60
2019-05-29T08:29:42.582Z,95.60
2019-05-29T08:32:11.594Z,95.80
2019-05-29T08:35:00.573Z,95.10
2019-05-29T08:37:16.425Z,95.80
2019-05-29T08:39:45.400Z,94.20
2019-05-29T08:42:29.001Z,95.20
2019-05-29T08:44:45.407Z,93.70
2019-05-29T08:47:38.572Z,94.50
2019-05-29T08:50:31.338Z,93.40
2019-05-29T08:52:56.005Z,94.50
2019-05-29T08:55:50.399Z,93.80
2019-05-29T08:58:46.253Z,94.30
2019-05-29T09:01:17.217Z,94.10
2019-05-29T09:03:45.107Z,94.70
2019-05-29T09:06:25.235Z,95.50
2019-05-29T09:08:54.788Z,96.70
2019-05-29T09:11:22.826Z,97.30
2019-05-29T09:13:50.641Z,97.60
2019-05-29T09:16:30.106Z,97.60
2019-05-29T09:18:59.566Z,97.80
2019-05-29T09:21:36.960Z,97.80
2019-05-29T09:24:10.783Z,97.90
2019-05-29T09:27:24.094Z,98.10
2019-05-29T09:29:56.701Z,98.00
2019-05-29T09:32:48.454Z,97.00
2019-05-29T09:35:18.215Z,96.90
2019-05-29T09:37:47.984Z,97.50
2019-05-29T09:40:21.174Z,95.70
2019-05-29T09:42:49.234Z,96.60
2019-05-29T09:45:25.558Z,96.60
2019-05-29T09:47:54.151Z,97.30
2019-05-29T09:50:27.584Z,98.20
2019-05-29T09:53:00.403Z,98.00
2019-05-29T09:55:32.202Z,98.30
2019-05-29T09:58:00.757Z,98.70
2019-05-29T10:00:34.240Z,98.90
2019-05-29T10:03:07.417Z,98.80
2019-05-29T10:05:36.345Z,98.70
2019-05-29T10:08:14.904Z,99.90
2019-05-29T10:10:43.574Z,98.60
2019-05-29T10:13:14.732Z,97.50
2019-05-29T10:15:50.664Z,97.10
2019-05-29T10:18:31.948Z,96.90
2019-05-29T10:21:05.807Z,98.00
2019-05-29T10:23:35.280Z,97.00
2019-05-29T10:26:23.708Z,97.60
2019-05-29T10:32:44.503Z,95.10
2019-05-29T10:35:53.353Z,93.10
2019-05-29T10:38:20.493Z,91.60
2019-05-29T10:41:05.656Z,90.60
2019-05-29T10:43:34.236Z,90.30
2019-05-29T10:45:56.250Z,91.10
2019-05-29T10:48:26.812Z,90.50
2019-05-29T10:50:56.908Z,91.20
2019-05-29T10:53:26.643Z,89.50
2019-05-29T10:55:54.982Z,89.40
2019-05-29T10:58:23.636Z,89.70
2019-05-29T11:00:53.234Z,84.80
2019-05-29T11:03:24.762Z,89.80
2019-05-29T11:05:56.350Z,90.90
2019-05-29T11:08:26.221Z,91.90
2019-05-29T11:10:54.207Z,91.90
2019-05-29T11:13:22.905Z,92.70
2019-05-29T11:15:52.772Z,92.90
2019-05-29T11:18:25.269Z,94.00
2019-05-29T11:20:55.935Z,92.90
2019-05-29T11:23:28.673Z,92.60
2019-05-29T11:26:34.210Z,92.10
2019-05-29T11:29:19.189Z,91.80
2019-05-29T11:31:59.842Z,92.40
2019-05-29T11:34:38.658Z,93.80
2019-05-29T11:37:13.450Z,91.70
2019-05-29T11:39:44.993Z,90.50
2019-05-29T11:42:26.902Z,89.30
2019-05-29T11:48:13.602Z,89.40
2019-05-29T11:54:02.465Z,89.60
2019-05-29T11:56:31.724Z,86.60
2019-05-29T11:59:07.382Z,81.80
2019-05-29T12:02:22.965Z,80.90
2019-05-29T12:04:35.405Z,77.10
2019-05-29T12:08:01.744Z,78.90
2019-05-29T12:23:25.866Z,74.00
2019-05-29T12:26:23.572Z,73.40
2019-05-29T12:28:53.440Z,72.70
2019-05-29T12:31:32.454Z,71.90
2019-05-29T12:34:18.878Z,74.00
2019-05-29T12:36:40.825Z,74.10
2019-05-29T12:39:18.388Z,75.30
2019-05-29T12:41:55.390Z,77.40
2019-05-29T12:44:43.594Z,77.00
2019-05-29T12:47:12.113Z,76.70
2019-05-29T12:49:40.967Z,74.10
2019-05-29T12:52:12.072Z,72.70
2019-05-29T12:55:21.359Z,74.50
2019-05-29T12:58:29.483Z,72.40
2019-05-29T13:01:05.779Z,74.00
2019-05-29T13:03:50.428Z,72.20
2019-05-29T13:06:40.752Z,73.70
2019-05-29T13:12:15.076Z,72.60
2019-05-29T13:14:44.178Z,74.00
2019-05-29T13:20:43.268Z,74.00
2019-05-29T13:23:23.252Z,75.00
2019-05-29T13:25:57.735Z,72.80
2019-05-29T13:28:34.898Z,73.40
2019-05-29T13:31:06.411Z,71.70
2019-05-29T13:33:43.067Z,71.90
2019-05-29T13:36:34.853Z,72.40
2019-05-29T13:39:29.982Z,71.90
2019-05-29T13:42:31.769Z,70.40
2019-05-29T13:45:05.020Z,69.50
2019-05-29T13:47:43.416Z,69.60
2019-05-29T13:52:57.178Z,68.20
2019-05-29T13:57:50.371Z,71.60
2019-05-29T14:00:33.739Z,66.80
2019-05-29T14:02:52.155Z,67.50
2019-05-29T14:08:42.655Z,68.70
2019-05-29T14:11:19.363Z,68.10
2019-05-29T14:21:24.558Z,67.10
2019-05-29T14:27:26.594Z,68.20
2019-05-29T14:30:10.211Z,69.60
2019-05-29T14:36:11.665Z,65.20
2019-05-29T14:39:05.779Z,67.60
2019-05-29T14:41:34.808Z,63.30
2019-05-29T14:44:03.713Z,66.80
2019-05-29T14:46:54.440Z,64.00
2019-05-29T14:49:30.671Z,64.30
2019-05-29T14:52:02.559Z,64.00
2019-05-29T14:54:41.909Z,61.00
2019-05-29T15:00:19.979Z,63.50
2019-05-29T15:03:13.558Z,65.10
2019-05-29T15:06:05.456Z,62.40
2019-05-29T15:08:22.774Z,64.30
2019-05-29T15:12:10.332Z,62.60
2019-05-29T15:14:31.491Z,64.20
2019-05-29T15:17:24.874Z,65.10
2019-05-29T15:20:12.975Z,60.40
2019-05-29T15:26:31.972Z,61.90
2019-05-29T15:29:12.650Z,60.90
2019-05-29T15:31:58.002Z,59.90
2019-05-29T15:35:14.845Z,59.00
2019-05-29T15:37:53.011Z,59.70
2019-05-29T15:40:54.307Z,58.80
2019-05-29T15:49:58.172Z,61.70
2019-05-29T15:52:56.197Z,62.90
2019-05-29T15:56:22.812Z,64.20
2019-05-29T15:59:04.113Z,66.10
2019-05-29T16:03:09.413Z,65.40
2019-05-29T16:06:30.031Z,66.30
2019-05-29T16:09:02.011Z,67.20
2019-05-29T16:11:47.682Z,66.10
2019-05-29T16:15:38.222Z,64.70
2019-05-29T16:17:57.094Z,65.70
2019-05-29T16:20:28.848Z,64.70
2019-05-29T16:23:35.843Z,66.20
2019-05-29T16:26:06.046Z,67.20
2019-05-29T16:28:40.028Z,67.00
2019-05-29T16:31:41.779Z,70.30
2019-05-29T16:40:50.179Z,74.00
2019-05-29T16:43:31.575Z,74.00
2019-05-29T16:55:53.938Z,70.70
2019-05-29T16:58:25.603Z,72.30
2019-05-29T17:04:19.665Z,71.30
2019-05-29T17:06:56.008Z,72.70
2019-05-29T17:09:24.684Z,73.00
2019-05-29T17:12:06.062Z,76.20
2019-05-29T17:14:55.786Z,76.30
2019-05-29T17:21:14.409Z,76.40
2019-05-29T17:27:23.556Z,76.20
2019-05-29T17:33:32.493Z,79.10
2019-05-29T17:37:00.540Z,78.00
2019-05-29T17:40:11.534Z,77.10
2019-05-29T17:42:55.263Z,78.30
2019-05-29T18:01:36.273Z,77.80
2019-05-29T18:04:26.631Z,79.40
2019-05-29T18:06:59.364Z,78.70
2019-05-29T18:09:31.850Z,79.40
2019-05-29T18:12:02.780Z,81.30
2019-05-29T18:15:07.665Z,80.70
2019-05-29T18:42:45.844Z,87.20
2019-05-29T18:45:20.886Z,90.00
2019-05-29T18:47:51.229Z,90.10
2019-05-29T18:50:19.172Z,89.50
2019-05-29T18:52:47.135Z,89.80
2019-05-29T18:55:15.231Z,88.40
2019-05-29T18:57:43.934Z,89.90
2019-05-29T19:00:13.710Z,90.20
2019-05-29T19:02:41.573Z,90.80
2019-05-29T19:05:12.575Z,90.90
2019-05-29T19:07:40.202Z,91.40
2019-05-29T19:10:18.759Z,91.50
2019-05-29T19:12:45.838Z,92.10
2019-05-29T19:15:30.057Z,92.40
2019-05-29T19:17:56.821Z,92.70
2019-05-29T19:20:24.495Z,92.70
2019-05-29T19:22:52.367Z,93.00
2019-05-29T19:25:20.439Z,93.70
2019-05-29T19:27:51.559Z,95.10
2019-05-29T19:30:19.400Z,96.40
2019-05-29T19:32:47.226Z,97.20
2019-05-29T19:35:16.432Z,97.40
2019-05-29T19:37:44.283Z,97.10
2019-05-29T19:40:14.526Z,98.70
2019-05-29T19:42:42.424Z,98.80
2019-05-29T19:45:11.438Z,99.40
2019-05-29T19:47:39.883Z,99.90
2019-05-29T19:50:11.291Z,99.90
2019-05-29T19:52:39.309Z,99.90
2019-05-29T19:55:09.613Z,99.90
2019-05-29T19:57:52.573Z,99.90
2019-05-29T20:00:07.394Z,99.90
2019-05-29T20:02:36.716Z,99.90
2019-05-29T20:05:05.318Z,99.90
2019-05-29T20:07:37.402Z,99.90
2019-05-29T20:10:06.311Z,99.90
2019-05-29T20:12:35.633Z,99.90
2019-05-29T20:15:03.593Z,99.90
2019-05-29T20:17:32.069Z,99.90
2019-05-29T20:19:59.847Z,99.90
2019-05-29T20:22:28.557Z,99.90
2019-05-29T20:24:57.346Z,99.90
2019-05-29T20:27:27.873Z,99.90
2019-05-29T20:29:56.486Z,99.90
2019-05-29T20:32:24.531Z,99.90
2019-05-29T20:35:04.814Z,99.90
2019-05-29T20:37:34.050Z,99.90
2019-05-29T20:40:02.287Z,99.90
2019-05-29T20:42:32.054Z,99.90
2019-05-29T20:45:00.540Z,99.90
2019-05-29T20:47:28.750Z,99.90
2019-05-29T20:49:56.415Z,99.90
2019-05-29T20:52:24.697Z,99.90
2019-05-29T20:54:52.715Z,99.90
2019-05-29T20:57:20.934Z,99.90
2019-05-29T20:59:51.506Z,99.90
2019-05-29T21:02:25.074Z,99.90
2019-05-29T21:04:56.202Z,99.90
2019-05-29T21:07:27.532Z,99.90
2019-05-29T21:09:57.900Z,99.90
2019-05-29T21:12:25.856Z,99.90
2019-05-29T21:14:53.641Z,99.90
2019-05-29T21:17:21.626Z,99.90
2019-05-29T21:19:50.000Z,99.90
2019-05-29T21:28:43.577Z,99.90
2019-05-29T21:31:08.038Z,99.90
2019-05-29T21:33:41.894Z,99.90
2019-05-29T21:36:07.609Z,99.90
2019-05-29T21:39:10.838Z,99.90
2019-05-29T21:41:38.890Z,99.90
2019-05-29T21:44:07.443Z,99.90
2019-05-29T21:46:36.633Z,99.90
2019-05-29T21:49:05.057Z,99.90
2019-05-29T21:51:33.461Z,99.90
2019-05-29T21:54:01.410Z,99.90
2019-05-29T21:56:29.004Z,99.90
2019-05-29T21:59:03.453Z,99.90
2019-05-29T22:01:33.854Z,99.90
2019-05-29T22:04:02.140Z,99.90
2019-05-29T22:06:30.247Z,99.90
2019-05-29T22:08:58.606Z,99.90
2019-05-29T22:11:27.070Z,99.90
2019-05-29T22:13:56.464Z,99.90
2019-05-29T22:16:28.790Z,99.90
2019-05-29T22:18:57.989Z,99.90
2019-05-29T22:21:28.147Z,99.90
2019-05-29T22:24:24.040Z,99.90
2019-05-29T22:26:53.158Z,99.90
2019-05-29T22:29:23.197Z,99.90
2019-05-29T22:31:51.299Z,99.90
2019-05-29T22:34:19.691Z,99.90
2019-05-29T22:36:55.461Z,99.90
2019-05-29T22:39:23.623Z,99.90
2019-05-29T22:41:51.908Z,99.90
2019-05-29T22:44:19.938Z,99.90
2019-05-29T22:46:47.569Z,99.90
2019-05-29T22:49:30.630Z,99.90
2019-05-29T22:51:58.384Z,99.90
2019-05-29T22:54:26.257Z,99.90
2019-05-29T22:56:54.276Z,99.90
2019-05-29T22:59:31.809Z,99.90
2019-05-29T23:01:54.153Z,99.90
2019-05-29T23:04:22.783Z,99.90
2019-05-29T23:06:51.993Z,99.90
2019-05-29T23:09:19.589Z,99.90
2019-05-29T23:11:47.867Z,99.90
2019-05-29T23:14:20.392Z,99.90
2019-05-29T23:16:50.755Z,99.90
2019-05-29T23:19:29.325Z,99.90
2019-05-29T23:21:59.025Z,99.90
2019-05-29T23:24:26.736Z,99.90
2019-05-29T23:26:55.344Z,99.90
2019-05-29T23:29:24.057Z,99.90
2019-05-29T23:31:52.815Z,99.90
2019-05-29T23:34:24.283Z,99.90
2019-05-29T23:36:53.557Z,99.90
2019-05-29T23:39:27.072Z,99.90
2019-05-29T23:41:59.392Z,99.90
2019-05-29T23:44:27.384Z,99.90
2019-05-29T23:46:57.442Z,99.90
2019-05-29T23:49:25.613Z,99.90
2019-05-29T23:51:53.630Z,99.90
2019-05-29T23:54:21.778Z,99.90
2019-05-29T23:56:49.797Z,99.90
2019-05-29T23:59:19.651Z,99.90
